Time,TemperatureF,DewpointF,PressureIn,WindDirection,WindDirectionDegrees,WindSpeedMPH,WindSpeedGustMPH,Humidity,HourlyPrecipIn,Conditions,Clouds,dailyrainin,SoftwareType,DateUTC
2013-05-04 00:10:00,57.0,53.8,29.84,ENE,70,14.0,26.0,89,0.00,-RA,-RA,0.00,WeatherDisplay:10.37,2013-05-04 05:10:00,
2013-05-04 00:40:00,59.0,55.8,29.86,East,100,10.0,10.0,89,0.00,-RA,-RA,0.09,WeatherDisplay:10.37,2013-05-04 05:40:00,
2013-05-04 01:10:00,59.0,55.8,29.86,East,100,10.0,10.0,89,0.09,-RA,-RA,0.18,WeatherDisplay:10.37,2013-05-04 06:10:00,
2013-05-04 01:40:00,60.1,55.9,29.85,East,100,10.0,10.0,86,0.00,-RA,-RA,0.18,WeatherDisplay:10.37,2013-05-04 06:40:00,
2013-05-04 02:10:00,60.1,55.9,29.85,East,100,10.0,10.0,86,0.03,-RA,-RA,0.21,WeatherDisplay:10.37,2013-05-04 07:10:00,
2013-05-04 02:40:00,60.1,55.9,29.85,ESE,120,10.0,10.0,86,0.00,-RA,-RA,0.21,WeatherDisplay:10.37,2013-05-04 07:40:00,
2013-05-04 03:10:00,60.1,55.9,29.85,ESE,120,10.0,10.0,86,0.02,-RA,-RA,0.23,WeatherDisplay:10.37,2013-05-04 08:10:00,
2013-05-04 03:40:00,59.0,57.0,29.85,ESE,110,8.0,8.0,93,0.00,-RA,-RA,0.23,WeatherDisplay:10.37,2013-05-04 08:40:00,
2013-05-04 04:10:00,59.0,57.0,29.85,ESE,110,8.0,8.0,93,0.02,-RA,-RA,0.25,WeatherDisplay:10.37,2013-05-04 09:10:00,
2013-05-04 04:40:00,59.0,57.0,29.85,East,80,7.0,7.0,93,0.00,OVC,OVC,0.25,WeatherDisplay:10.37,2013-05-04 09:40:00,
2013-05-04 05:10:00,59.0,57.0,29.85,East,80,7.0,7.0,93,0.03,OVC,OVC,0.28,WeatherDisplay:10.37,2013-05-04 10:10:00,
2013-05-04 05:40:00,59.0,55.8,29.85,East,100,5.0,5.0,89,0.00,OVC,OVC,0.28,WeatherDisplay:10.37,2013-05-04 10:40:00,
2013-05-04 06:10:00,59.0,55.8,29.85,East,100,5.0,5.0,89,0.00,OVC,OVC,0.28,WeatherDisplay:10.37,2013-05-04 11:10:00,
2013-05-04 06:40:00,59.0,55.8,29.88,SSE,150,7.0,7.0,89,0.00,BKN,BKN,0.28,WeatherDisplay:10.37,2013-05-04 11:40:00,
2013-05-04 07:10:00,59.0,55.8,29.88,SSE,150,7.0,7.0,89,0.00,BKN,BKN,0.28,WeatherDisplay:10.37,2013-05-04 12:10:00,
2013-05-04 07:40:00,59.0,54.8,29.89,South,170,8.0,8.0,86,0.00,OVC,OVC,0.28,WeatherDisplay:10.37,2013-05-04 12:40:00,
2013-05-04 08:10:00,53.6,51.6,29.91,SW,220,6.0,9.0,93,0.00,OVC,OVC,0.28,WeatherDisplay:10.37,2013-05-04 13:10:00,
2013-05-04 08:40:00,54.0,51.7,29.91,South,190,3.0,3.0,92,0.00,OVC,OVC,0.28,WeatherDisplay:10.37,2013-05-04 13:40:00,
2013-05-04 09:10:00,57.2,53.4,29.92,South,180,5.0,5.0,87,0.00,OVC,OVC,0.28,WeatherDisplay:10.37,2013-05-04 14:10:00,
2013-05-04 09:40:00,57.0,52.9,29.92,South,190,3.0,3.0,86,0.00,OVC,OVC,0.28,WeatherDisplay:10.37,2013-05-04 14:40:00,
2013-05-04 10:10:00,55.9,53.0,29.94,SSW,200,7.0,7.0,90,0.01,-RA,-RA,0.29,WeatherDisplay:10.37,2013-05-04 15:10:00,
2013-05-04 10:40:00,57.0,52.9,29.93,SSW,200,0.0,0.0,86,0.00,OVC,OVC,0.29,WeatherDisplay:10.37,2013-05-04 15:40:00,
2013-05-04 11:10:00,57.0,52.9,29.93,SSW,200,0.0,0.0,86,0.00,OVC,OVC,0.29,WeatherDisplay:10.37,2013-05-04 16:10:00,
2013-05-04 11:40:00,57.9,55.0,29.94,SSW,200,0.0,0.0,90,0.00,-RA,-RA,0.29,WeatherDisplay:10.37,2013-05-04 16:40:00,
2013-05-04 12:10:00,57.9,55.0,29.94,SSW,200,0.0,0.0,90,0.00,-RA,-RA,0.29,WeatherDisplay:10.37,2013-05-04 17:10:00,
2013-05-04 12:40:00,62.1,54.8,29.94,SE,140,9.0,9.0,77,0.00,OVC,OVC,0.29,WeatherDisplay:10.37,2013-05-04 17:40:00,
2013-05-04 13:10:00,62.1,54.8,29.94,SE,140,9.0,9.0,77,0.00,OVC,OVC,0.29,WeatherDisplay:10.37,2013-05-04 18:10:00,
2013-05-04 13:40:00,63.0,53.0,29.93,SE,140,12.0,12.0,70,0.00,OVC,OVC,0.29,WeatherDisplay:10.37,2013-05-04 18:40:00,
2013-05-04 14:10:00,63.0,51.8,29.93,SE,130,10.0,24.0,67,0.00,OVC,OVC,0.29,WeatherDisplay:10.37,2013-05-04 19:10:00,
2013-05-04 14:40:00,64.0,52.9,29.93,SE,130,9.0,9.0,67,0.00,OVC,OVC,0.29,WeatherDisplay:10.37,2013-05-04 19:40:00,
2013-05-04 15:10:00,64.0,52.9,29.93,SE,130,9.0,9.0,67,0.00,OVC,OVC,0.29,WeatherDisplay:10.37,2013-05-04 20:10:00,
2013-05-04 15:40:00,59.0,55.8,29.94,SE,130,7.0,7.0,89,0.00,-RA,-RA,0.33,WeatherDisplay:10.37,2013-05-04 20:40:00,
2013-05-04 16:10:00,59.0,55.8,29.94,SE,130,7.0,7.0,89,0.04,-RA,-RA,0.37,WeatherDisplay:10.37,2013-05-04 21:10:00,
2013-05-04 16:40:00,59.0,55.8,29.94,East,90,7.0,7.0,89,0.00,OVC,OVC,0.37,WeatherDisplay:10.37,2013-05-04 21:40:00,
2013-05-04 17:10:00,59.0,55.8,29.94,East,90,7.0,7.0,89,0.01,OVC,OVC,0.38,WeatherDisplay:10.37,2013-05-04 22:10:00,
2013-05-04 17:40:00,60.1,54.9,29.94,SE,130,8.0,8.0,83,0.00,OVC,OVC,0.38,WeatherDisplay:10.37,2013-05-04 22:40:00,
2013-05-04 18:10:00,60.8,53.5,29.96,ESE,120,9.0,9.0,77,0.00,OVC,OVC,0.38,WeatherDisplay:10.37,2013-05-04 23:10:00,
2013-05-04 18:40:00,61.0,53.0,29.96,ESE,110,6.0,6.0,75,0.00,OVC,OVC,0.38,WeatherDisplay:10.37,2013-05-04 23:40:00,
2013-05-04 19:10:00,61.0,53.0,29.96,ESE,110,6.0,6.0,75,0.00,OVC,OVC,0.38,WeatherDisplay:10.37,2013-05-05 00:10:00,
2013-05-04 19:40:00,60.1,53.9,29.96,ESE,120,5.0,5.0,80,0.00,OVC,OVC,0.38,WeatherDisplay:10.37,2013-05-05 00:40:00,
2013-05-04 20:10:00,57.2,53.4,30.00,South,170,9.0,21.0,87,0.02,-RA,-RA,0.40,WeatherDisplay:10.37,2013-05-05 01:10:00,
2013-05-04 20:40:00,55.0,53.1,30.01,South,170,13.0,13.0,93,0.00,-RA,-RA,0.40,WeatherDisplay:10.37,2013-05-05 01:40:00,
2013-05-04 21:10:00,55.0,53.1,30.01,South,170,7.0,13.0,93,0.02,OVC,OVC,0.42,WeatherDisplay:10.37,2013-05-05 02:10:00,
2013-05-04 21:40:00,55.0,51.9,30.02,SSE,160,5.0,5.0,89,0.00,OVC,OVC,0.42,WeatherDisplay:10.37,2013-05-05 02:40:00,
2013-05-04 22:10:00,55.0,51.9,30.02,SSE,160,5.0,5.0,89,0.02,OVC,OVC,0.44,WeatherDisplay:10.37,2013-05-05 03:10:00,
2013-05-04 22:40:00,54.0,51.7,30.03,South,180,6.0,6.0,92,0.00,OVC,OVC,0.44,WeatherDisplay:10.37,2013-05-05 03:40:00,
2013-05-04 23:10:00,54.0,51.7,30.03,South,180,6.0,6.0,92,0.00,OVC,OVC,0.44,WeatherDisplay:10.37,2013-05-05 04:10:00,
2013-05-04 23:40:00,54.0,51.7,30.03,South,180,0.0,0.0,92,0.00,OVC,OVC,0.44,WeatherDisplay:10.37,2013-05-05 04:40:00,